Time,TemperatureF,DewpointF,PressureIn,WindDirection,WindDirectionDegrees,WindSpeedMPH,WindSpeedGustMPH,Humidity,HourlyPrecipIn,Conditions,Clouds,dailyrainin,SoftwareType,DateUTC
2012-04-16 06:46:00,23.7,18.7,30.14,SSE,158,0.0,0.0,81,0.00,,---,0.00,VWS V14.01,2012-04-16 12:46:00,
2012-04-16 06:47:00,24.5,19.2,30.14,SSE,167,0.0,0.0,80,0.00,,---,0.00,VWS V14.01,2012-04-16 12:47:00,
2012-04-16 06:49:00,24.8,19.2,30.14,SSE,167,0.0,1.0,79,0.00,,---,0.00,VWS V14.01,2012-04-16 12:49:00,
2012-04-16 06:54:00,25.3,19.4,30.14,SSE,167,0.0,1.0,78,0.00,,---,0.00,VWS V14.01,2012-04-16 12:54:00,
2012-04-16 06:59:00,25.8,19.3,30.12,SSE,167,1.0,2.0,76,0.00,,---,0.00,VWS V14.01,2012-04-16 12:59:00,
2012-04-16 07:04:00,26.7,19.9,30.14,SSE,167,2.0,2.0,75,0.00,,---,0.00,VWS V14.01,2012-04-16 13:04:00,
2012-04-16 07:09:00,28.1,20.6,30.14,SSE,167,0.0,4.0,73,0.00,,---,0.00,VWS V14.01,2012-04-16 13:09:00,
2012-04-16 07:15:00,29.0,21.1,30.13,SSE,167,2.0,4.0,72,0.00,,---,0.00,VWS V14.01,2012-04-16 13:15:00,
2012-04-16 07:20:00,29.4,20.8,30.13,SSE,167,0.0,2.0,70,0.00,,---,0.00,VWS V14.01,2012-04-16 13:20:00,
2012-04-16 07:25:00,30.4,20.8,30.13,SSE,167,2.0,5.0,67,0.00,,---,0.00,VWS V14.01,2012-04-16 13:25:00,
2012-04-16 07:31:00,32.2,21.4,30.11,South,173,3.0,7.0,64,0.00,,---,0.00,VWS V14.01,2012-04-16 13:31:00,
2012-04-16 07:36:00,33.2,22.0,30.10,South,173,5.0,5.0,63,0.00,,---,0.00,VWS V14.01,2012-04-16 13:36:00,
2012-04-16 07:41:00,34.5,20.9,30.10,South,173,3.0,7.0,57,0.00,,---,0.00,VWS V14.01,2012-04-16 13:41:00,
2012-04-16 07:46:00,35.7,20.7,30.08,South,176,6.0,8.0,54,0.00,,---,0.00,VWS V14.01,2012-04-16 13:46:00,
2012-04-16 07:51:00,36.4,20.9,30.09,South,177,4.0,7.0,53,0.00,,---,0.00,VWS V14.01,2012-04-16 13:51:00,
2012-04-16 07:56:00,37.0,19.6,30.08,SSW,202,5.0,9.0,49,0.00,,---,0.00,VWS V14.01,2012-04-16 13:56:00,
2012-04-16 08:01:00,37.3,20.9,30.08,SSW,207,2.0,10.0,51,0.00,,---,0.00,VWS V14.01,2012-04-16 14:01:00,
2012-04-16 08:06:00,37.4,21.9,30.08,SSW,207,1.0,3.0,53,0.00,,---,0.00,VWS V14.01,2012-04-16 14:06:00,
2012-04-16 08:11:00,37.1,21.6,30.10,SSW,207,1.0,4.0,53,0.00,,---,0.00,VWS V14.01,2012-04-16 14:11:00,
2012-04-16 08:16:00,37.0,21.0,30.09,SSW,207,3.0,5.0,52,0.00,,---,0.00,VWS V14.01,2012-04-16 14:16:00,
2012-04-16 08:21:00,37.2,20.3,30.10,SW,221,0.0,10.0,50,0.00,,---,0.00,VWS V14.01,2012-04-16 14:21:00,
2012-04-16 08:26:00,37.6,19.7,30.09,SW,231,4.0,10.0,48,0.00,,---,0.00,VWS V14.01,2012-04-16 14:26:00,
2012-04-16 08:31:00,38.5,18.5,30.09,WNW,286,9.0,16.0,44,0.00,,---,0.00,VWS V14.01,2012-04-16 14:31:00,
2012-04-16 08:36:00,38.8,17.7,30.09,WNW,290,9.0,15.0,42,0.00,,---,0.00,VWS V14.01,2012-04-16 14:36:00,
2012-04-16 08:41:00,38.7,19.2,30.09,WNW,298,12.0,18.0,45,0.00,,---,0.00,VWS V14.01,2012-04-16 14:41:00,
2012-04-16 08:46:00,38.6,18.6,30.09,NNW,344,8.0,23.0,44,0.00,,---,0.00,VWS V14.01,2012-04-16 14:46:00,
2012-04-16 08:51:00,38.4,17.9,30.09,NNW,338,10.0,14.0,43,0.00,,---,0.00,VWS V14.01,2012-04-16 14:51:00,
2012-04-16 08:56:00,38.5,18.0,30.10,NNW,337,9.0,13.0,43,0.00,,---,0.00,VWS V14.01,2012-04-16 14:56:00,
2012-04-16 09:01:00,38.6,18.0,30.09,NNW,337,8.0,10.0,43,0.00,,---,0.00,VWS V14.01,2012-04-16 15:01:00,
2012-04-16 09:06:00,38.9,16.1,30.10,NW,323,7.0,7.0,39,0.00,,---,0.00,VWS V14.01,2012-04-16 15:06:00,
2012-04-16 09:11:00,39.3,16.4,30.10,WNW,300,12.0,15.0,39,0.00,,---,0.00,VWS V14.01,2012-04-16 15:11:00,
2012-04-16 09:16:00,39.5,15.4,30.08,WNW,297,11.0,14.0,37,0.00,,---,0.00,VWS V14.01,2012-04-16 15:16:00,
2012-04-16 09:21:00,39.7,15.6,30.08,WNW,286,8.0,8.0,37,0.00,,---,0.00,VWS V14.01,2012-04-16 15:21:00,
2012-04-16 09:26:00,40.2,14.8,30.09,WNW,292,9.0,15.0,35,0.00,,---,0.00,VWS V14.01,2012-04-16 15:26:00,
2012-04-16 09:31:00,40.4,14.3,30.09,WNW,295,7.0,18.0,34,0.00,,---,0.00,VWS V14.01,2012-04-16 15:31:00,
2012-04-16 09:36:00,40.7,13.9,30.09,West,271,8.0,8.0,33,0.00,,---,0.00,VWS V14.01,2012-04-16 15:36:00,
2012-04-16 09:41:00,40.8,14.6,30.09,West,278,10.0,10.0,34,0.00,,---,0.00,VWS V14.01,2012-04-16 15:41:00,
2012-04-16 09:46:00,40.6,14.4,30.09,WNW,287,4.0,6.0,34,0.00,,---,0.00,VWS V14.01,2012-04-16 15:46:00,
2012-04-16 09:51:00,40.7,15.2,30.09,WNW,298,8.0,16.0,35,0.00,,---,0.00,VWS V14.01,2012-04-16 15:51:00,
2012-04-16 09:56:00,41.0,14.1,30.09,NW,314,20.0,20.0,33,0.00,,---,0.00,VWS V14.01,2012-04-16 15:56:00,
2012-04-16 10:01:00,40.7,13.1,30.10,WNW,303,9.0,14.0,32,0.00,,---,0.00,VWS V14.01,2012-04-16 16:01:00,
2012-04-16 10:06:00,40.8,13.9,30.10,WNW,302,5.0,5.0,33,0.00,,---,0.00,VWS V14.01,2012-04-16 16:06:00,
2012-04-16 10:11:00,41.1,14.9,30.10,WNW,291,4.0,6.0,34,0.00,,---,0.00,VWS V14.01,2012-04-16 16:11:00,
2012-04-16 10:16:00,41.1,14.9,30.10,WNW,283,9.0,10.0,34,0.00,,---,0.00,VWS V14.01,2012-04-16 16:16:00,
2012-04-16 10:21:00,41.3,15.1,30.11,WNW,284,7.0,11.0,34,0.00,,---,0.00,VWS V14.01,2012-04-16 16:21:00,
2012-04-16 10:26:00,40.7,13.9,30.11,WNW,290,5.0,9.0,33,0.00,,---,0.00,VWS V14.01,2012-04-16 16:26:00,
2012-04-16 10:31:00,41.7,14.7,30.11,NW,311,8.0,8.0,33,0.00,,---,0.00,VWS V14.01,2012-04-16 16:31:00,
2012-04-16 10:37:00,41.6,15.3,30.11,West,277,4.0,6.0,34,0.00,,---,0.00,VWS V14.01,2012-04-16 16:37:00,
2012-04-16 10:42:00,41.7,14.7,30.11,WNW,296,14.0,14.0,33,0.00,,---,0.00,VWS V14.01,2012-04-16 16:42:00,
2012-04-16 10:47:00,41.8,14.8,30.11,WNW,294,7.0,11.0,33,0.00,,---,0.00,VWS V14.01,2012-04-16 16:47:00,
2012-04-16 10:52:00,42.2,15.2,30.11,WNW,298,8.0,8.0,33,0.00,,---,0.00,VWS V14.01,2012-04-16 16:52:00,
2012-04-16 10:57:00,42.7,15.6,30.09,NNW,342,6.0,12.0,33,0.00,,---,0.00,VWS V14.01,2012-04-16 16:57:00,
2012-04-16 11:03:00,43.1,16.0,30.10,West,273,6.0,9.0,33,0.00,,---,0.00,VWS V14.01,2012-04-16 17:03:00,
2012-04-16 11:08:00,43.2,14.6,30.11,WNW,294,13.0,19.0,31,0.00,,---,0.00,VWS V14.01,2012-04-16 17:08:00,
2012-04-16 11:13:00,41.9,14.2,30.11,NNW,333,6.0,11.0,32,0.00,,---,0.00,VWS V14.01,2012-04-16 17:13:00,
2012-04-16 11:18:00,42.9,15.8,30.11,NNW,333,1.0,5.0,33,0.00,,---,0.00,VWS V14.01,2012-04-16 17:18:00,
2012-04-16 11:23:00,44.0,15.3,30.09,NNW,331,6.0,15.0,31,0.00,,---,0.00,VWS V14.01,2012-04-16 17:23:00,
2012-04-16 11:28:00,42.6,14.8,30.11,WNW,285,7.0,12.0,32,0.00,,---,0.00,VWS V14.01,2012-04-16 17:28:00,
2012-04-16 11:33:00,42.1,14.4,30.11,WNW,285,0.0,4.0,32,0.00,,---,0.00,VWS V14.01,2012-04-16 17:33:00,
2012-04-16 11:38:00,42.4,14.6,30.11,WNW,285,5.0,6.0,32,0.00,,---,0.00,VWS V14.01,2012-04-16 17:38:00,
2012-04-16 11:43:00,42.8,14.3,30.11,NW,315,8.0,12.0,31,0.00,,---,0.00,VWS V14.01,2012-04-16 17:43:00,
2012-04-16 11:48:00,42.9,14.4,30.11,NW,318,10.0,14.0,31,0.00,,---,0.00,VWS V14.01,2012-04-16 17:48:00,
2012-04-16 11:53:00,43.0,13.7,30.11,NNW,327,5.0,9.0,30,0.00,,---,0.00,VWS V14.01,2012-04-16 17:53:00,
2012-04-16 11:58:00,43.2,13.9,30.11,WNW,284,3.0,10.0,30,0.00,,---,0.00,VWS V14.01,2012-04-16 17:58:00,
2012-04-16 12:03:00,43.2,13.9,30.10,West,281,0.0,8.0,30,0.00,,---,0.00,VWS V14.01,2012-04-16 18:03:00,
2012-04-16 12:08:00,43.2,13.9,30.10,WNW,283,0.0,4.0,30,0.00,,---,0.00,VWS V14.01,2012-04-16 18:08:00,
2012-04-16 12:13:00,43.7,15.8,30.09,WNW,286,0.0,9.0,32,0.00,,---,0.00,VWS V14.01,2012-04-16 18:13:00,
2012-04-16 12:18:00,44.9,16.1,30.08,NW,308,7.0,9.0,31,0.00,,---,0.00,VWS V14.01,2012-04-16 18:18:00,
2012-04-16 12:23:00,46.1,17.2,30.06,NW,323,7.0,11.0,31,0.00,,---,0.00,VWS V14.01,2012-04-16 18:23:00,
2012-04-16 12:28:00,45.8,15.4,30.06,NW,325,5.0,9.0,29,0.00,,---,0.00,VWS V14.01,2012-04-16 18:28:00,
2012-04-16 12:33:00,44.9,15.4,30.08,NW,325,2.0,7.0,30,0.00,,---,0.00,VWS V14.01,2012-04-16 18:33:00,
2012-04-16 12:38:00,44.7,14.4,30.08,NW,325,0.0,5.0,29,0.00,,---,0.00,VWS V14.01,2012-04-16 18:38:00,
2012-04-16 12:43:00,44.2,14.0,30.08,NW,325,7.0,9.0,29,0.00,,---,0.00,VWS V14.01,2012-04-16 18:43:00,
2012-04-16 12:48:00,44.2,14.0,30.08,WNW,298,5.0,8.0,29,0.00,,---,0.00,VWS V14.01,2012-04-16 18:48:00,
2012-04-16 12:54:00,45.2,14.9,30.08,WNW,298,5.0,7.0,29,0.00,,---,0.00,VWS V14.01,2012-04-16 18:54:00,
2012-04-16 12:59:00,45.7,15.3,30.06,West,281,5.0,11.0,29,0.00,,---,0.00,VWS V14.01,2012-04-16 18:59:00,
2012-04-16 13:04:00,45.8,16.9,30.07,West,277,3.0,10.0,31,0.00,,---,0.00,VWS V14.01,2012-04-16 19:04:00,
2012-04-16 13:09:00,45.6,16.0,30.08,West,277,6.0,8.0,30,0.00,,---,0.00,VWS V14.01,2012-04-16 19:09:00,
2012-04-16 13:14:00,45.6,15.2,30.08,West,277,7.0,9.0,29,0.00,,---,0.00,VWS V14.01,2012-04-16 19:14:00,
2012-04-16 13:19:00,45.8,16.1,30.08,West,271,2.0,13.0,30,0.00,,---,0.00,VWS V14.01,2012-04-16 19:19:00,
2012-04-16 13:24:00,45.8,16.1,30.08,West,271,2.0,6.0,30,0.00,,---,0.00,VWS V14.01,2012-04-16 19:24:00,
2012-04-16 13:29:00,45.3,15.7,30.08,West,271,0.0,9.0,30,0.00,,---,0.00,VWS V14.01,2012-04-16 19:29:00,
2012-04-16 13:34:00,45.7,15.3,30.07,West,271,0.0,5.0,29,0.00,,---,0.00,VWS V14.01,2012-04-16 19:34:00,
2012-04-16 13:39:00,45.6,15.2,30.07,West,271,1.0,5.0,29,0.00,,---,0.00,VWS V14.01,2012-04-16 19:39:00,
2012-04-16 13:44:00,45.8,16.1,30.07,West,271,4.0,9.0,30,0.00,,---,0.00,VWS V14.01,2012-04-16 19:44:00,
2012-04-16 13:49:00,45.5,15.9,30.07,West,271,4.0,10.0,30,0.00,,---,0.00,VWS V14.01,2012-04-16 19:49:00,
2012-04-16 13:54:00,45.7,16.8,30.07,West,271,4.0,4.0,31,0.00,,---,0.00,VWS V14.01,2012-04-16 19:54:00,
2012-04-16 13:59:00,45.9,16.2,30.07,West,271,3.0,8.0,30,0.00,,---,0.00,VWS V14.01,2012-04-16 19:59:00,
2012-04-16 14:04:00,46.1,17.2,30.08,West,261,0.0,14.0,31,0.00,,---,0.00,VWS V14.01,2012-04-16 20:04:00,
2012-04-16 14:09:00,46.5,16.8,30.08,West,262,0.0,5.0,30,0.00,,---,0.00,VWS V14.01,2012-04-16 20:09:00,
2012-04-16 14:14:00,46.4,15.9,30.08,West,263,2.0,8.0,29,0.00,,---,0.00,VWS V14.01,2012-04-16 20:14:00,
2012-04-16 14:19:00,46.7,15.3,30.09,West,263,4.0,10.0,28,0.00,,---,0.00,VWS V14.01,2012-04-16 20:19:00,
2012-04-16 14:24:00,46.5,15.2,30.08,West,263,0.0,2.0,28,0.00,,---,0.00,VWS V14.01,2012-04-16 20:24:00,
2012-04-16 14:29:00,46.7,15.3,30.09,West,263,0.0,1.0,28,0.00,,---,0.00,VWS V14.01,2012-04-16 20:29:00,
2012-04-16 14:34:00,47.2,14.9,30.08,West,263,4.0,9.0,27,0.00,,---,0.00,VWS V14.01,2012-04-16 20:34:00,
2012-04-16 14:39:00,46.5,15.2,30.08,West,263,0.0,5.0,28,0.00,,---,0.00,VWS V14.01,2012-04-16 20:39:00,
2012-04-16 14:44:00,46.8,15.4,30.08,West,263,0.0,1.0,28,0.00,,---,0.00,VWS V14.01,2012-04-16 20:44:00,
2012-04-16 14:49:00,47.0,15.6,30.08,West,267,8.0,8.0,28,0.00,,---,0.00,VWS V14.01,2012-04-16 20:49:00,
2012-04-16 14:54:00,46.6,14.4,30.08,West,269,2.0,11.0,27,0.00,,---,0.00,VWS V14.01,2012-04-16 20:54:00,
2012-04-16 14:59:00,46.7,15.3,30.08,West,269,0.0,5.0,28,0.00,,---,0.00,VWS V14.01,2012-04-16 20:59:00,
2012-04-16 15:04:00,47.3,15.9,30.09,West,269,5.0,9.0,28,0.00,,---,0.00,VWS V14.01,2012-04-16 21:04:00,
2012-04-16 15:09:00,47.5,16.0,30.07,West,267,7.0,14.0,28,0.00,,---,0.00,VWS V14.01,2012-04-16 21:09:00,
2012-04-16 15:15:00,47.7,16.2,30.07,West,272,8.0,21.0,28,0.00,,---,0.00,VWS V14.01,2012-04-16 21:15:00,
2012-04-16 15:20:00,47.9,16.4,30.08,West,274,10.0,16.0,28,0.00,,---,0.00,VWS V14.01,2012-04-16 21:20:00,
2012-04-16 15:25:00,48.1,17.4,30.08,West,270,5.0,16.0,29,0.00,,---,0.00,VWS V14.01,2012-04-16 21:25:00,
2012-04-16 15:30:00,48.6,17.0,30.07,West,272,11.0,12.0,28,0.00,,---,0.00,VWS V14.01,2012-04-16 21:30:00,
2012-04-16 15:35:00,49.4,16.0,30.07,WNW,295,0.0,15.0,26,0.00,,---,0.00,VWS V14.01,2012-04-16 21:35:00,
2012-04-16 15:40:00,49.7,17.1,30.05,WNW,298,10.0,14.0,27,0.00,,---,0.00,VWS V14.01,2012-04-16 21:40:00,
2012-04-16 15:45:00,48.8,17.2,30.07,WNW,294,10.0,10.0,28,0.00,,---,0.00,VWS V14.01,2012-04-16 21:45:00,
2012-04-16 15:50:00,49.3,19.2,30.07,West,263,22.0,22.0,30,0.00,,---,0.00,VWS V14.01,2012-04-16 21:50:00,
2012-04-16 15:55:00,49.0,17.3,30.07,West,273,10.0,19.0,28,0.00,,---,0.00,VWS V14.01,2012-04-16 21:55:00,
2012-04-16 16:00:00,49.3,18.4,30.08,West,263,15.0,18.0,29,0.00,,---,0.00,VWS V14.01,2012-04-16 22:00:00,
2012-04-16 16:02:00,49.1,18.2,30.08,West,260,6.0,11.0,29,0.00,,---,0.00,VWS V14.01,2012-04-16 22:02:00,
2012-04-16 16:07:00,48.3,16.7,30.10,West,263,7.0,8.0,28,0.00,,---,0.00,VWS V14.01,2012-04-16 22:07:00,
2012-04-16 16:12:00,48.6,17.0,30.08,West,267,0.0,3.0,28,0.00,,---,0.00,VWS V14.01,2012-04-16 22:12:00,
2012-04-16 16:17:00,48.9,16.4,30.08,West,273,9.0,11.0,27,0.00,,---,0.00,VWS V14.01,2012-04-16 22:17:00,
2012-04-16 16:22:00,48.9,16.4,30.08,West,273,5.0,6.0,27,0.00,,---,0.00,VWS V14.01,2012-04-16 22:22:00,
2012-04-16 16:27:00,48.8,16.3,30.08,West,276,10.0,12.0,27,0.00,,---,0.00,VWS V14.01,2012-04-16 22:27:00,
2012-04-16 16:32:00,47.8,16.3,30.10,West,277,4.0,8.0,28,0.00,,---,0.00,VWS V14.01,2012-04-16 22:32:00,
2012-04-16 16:37:00,48.6,16.1,30.10,West,277,2.0,11.0,27,0.00,,---,0.00,VWS V14.01,2012-04-16 22:37:00,
2012-04-16 16:42:00,49.0,16.5,30.08,West,277,2.0,7.0,27,0.00,,---,0.00,VWS V14.01,2012-04-16 22:42:00,
2012-04-16 16:47:00,49.9,17.3,30.08,West,277,8.0,11.0,27,0.00,,---,0.00,VWS V14.01,2012-04-16 22:47:00,
2012-04-16 16:52:00,49.6,17.0,30.08,West,281,0.0,6.0,27,0.00,,---,0.00,VWS V14.01,2012-04-16 22:52:00,
2012-04-16 16:57:00,50.5,17.8,30.07,West,281,6.0,9.0,27,0.00,,---,0.00,VWS V14.01,2012-04-16 22:57:00,
2012-04-16 17:02:00,50.5,16.9,30.07,West,281,4.0,7.0,26,0.00,,---,0.00,VWS V14.01,2012-04-16 23:02:00,
2012-04-16 17:07:00,50.4,16.8,30.08,West,280,1.0,6.0,26,0.00,,---,0.00,VWS V14.01,2012-04-16 23:07:00,
2012-04-16 17:12:00,50.4,16.8,30.09,West,281,5.0,5.0,26,0.00,,---,0.00,VWS V14.01,2012-04-16 23:12:00,
2012-04-16 17:18:00,49.7,16.2,30.09,West,281,4.0,6.0,26,0.00,,---,0.00,VWS V14.01,2012-04-16 23:18:00,
2012-04-16 17:23:00,49.2,16.7,30.10,West,281,8.0,11.0,27,0.00,,---,0.00,VWS V14.01,2012-04-16 23:23:00,
2012-04-16 17:28:00,49.2,17.5,30.09,WNW,286,7.0,8.0,28,0.00,,---,0.00,VWS V14.01,2012-04-16 23:28:00,
2012-04-16 17:33:00,50.0,17.4,30.09,WNW,290,9.0,9.0,27,0.00,,---,0.00,VWS V14.01,2012-04-16 23:33:00,
2012-04-16 17:38:00,50.6,17.0,30.08,WNW,290,3.0,12.0,26,0.00,,---,0.00,VWS V14.01,2012-04-16 23:38:00,
2012-04-16 17:43:00,50.4,16.8,30.10,WNW,290,7.0,12.0,26,0.00,,---,0.00,VWS V14.01,2012-04-16 23:43:00,
2012-04-16 17:48:00,50.3,16.7,30.10,WNW,291,7.0,11.0,26,0.00,,---,0.00,VWS V14.01,2012-04-16 23:48:00,
2012-04-16 17:53:00,50.6,17.9,30.08,West,278,9.0,13.0,27,0.00,,---,0.00,VWS V14.01,2012-04-16 23:53:00,
2012-04-16 17:58:00,51.0,18.2,30.09,West,279,9.0,9.0,27,0.00,,---,0.00,VWS V14.01,2012-04-16 23:58:00,
2012-04-16 18:03:00,50.6,17.9,30.08,West,271,6.0,7.0,27,0.00,,---,0.00,VWS V14.01,2012-04-17 00:03:00,
2012-04-16 18:08:00,50.3,17.6,30.09,West,275,5.0,10.0,27,0.00,,---,0.00,VWS V14.01,2012-04-17 00:08:00,
2012-04-16 18:13:00,50.2,17.5,30.09,West,275,6.0,9.0,27,0.00,,---,0.00,VWS V14.01,2012-04-17 00:13:00,
2012-04-16 18:18:00,50.4,17.7,30.09,West,275,2.0,8.0,27,0.00,,---,0.00,VWS V14.01,2012-04-17 00:18:00,
2012-04-16 18:23:00,50.3,18.5,30.09,West,275,10.0,10.0,28,0.00,,---,0.00,VWS V14.01,2012-04-17 00:23:00,
2012-04-16 18:28:00,49.9,18.1,30.09,West,269,8.0,13.0,28,0.00,,---,0.00,VWS V14.01,2012-04-17 00:28:00,
2012-04-16 18:33:00,49.7,17.9,30.09,West,272,2.0,11.0,28,0.00,,---,0.00,VWS V14.01,2012-04-17 00:33:00,
2012-04-16 18:38:00,50.0,19.0,30.09,West,272,2.0,8.0,29,0.00,,---,0.00,VWS V14.01,2012-04-17 00:38:00,
2012-04-16 18:43:00,50.1,18.3,30.09,West,272,2.0,7.0,28,0.00,,---,0.00,VWS V14.01,2012-04-17 00:43:00,
2012-04-16 18:48:00,49.9,18.1,30.09,West,272,5.0,10.0,28,0.00,,---,0.00,VWS V14.01,2012-04-17 00:48:00,
2012-04-16 18:53:00,49.3,17.6,30.11,West,272,4.0,10.0,28,0.00,,---,0.00,VWS V14.01,2012-04-17 00:53:00,
2012-04-16 18:58:00,49.0,18.1,30.11,West,272,5.0,8.0,29,0.00,,---,0.00,VWS V14.01,2012-04-17 00:58:00,
2012-04-16 19:03:00,48.5,18.5,30.01,West,272,5.0,8.0,30,0.00,,---,0.00,VWS V14.01,2012-04-17 01:03:00,
2012-04-16 19:09:00,48.4,19.2,30.01,West,272,4.0,6.0,31,0.00,,---,0.00,VWS V14.01,2012-04-17 01:09:00,
2012-04-16 19:14:00,47.7,19.3,30.03,West,272,1.0,5.0,32,0.00,,---,0.00,VWS V14.01,2012-04-17 01:14:00,
2012-04-16 19:19:00,46.7,19.1,30.03,West,272,2.0,6.0,33,0.00,,---,0.00,VWS V14.01,2012-04-17 01:19:00,
2012-04-16 19:24:00,45.8,19.0,30.05,West,272,1.0,6.0,34,0.00,,---,0.00,VWS V14.01,2012-04-17 01:24:00,
2012-04-16 19:29:00,45.0,19.7,30.05,West,272,2.0,6.0,36,0.00,,---,0.00,VWS V14.01,2012-04-17 01:29:00,
2012-04-16 19:34:00,43.9,19.3,30.08,West,272,2.0,4.0,37,0.00,,---,0.00,VWS V14.01,2012-04-17 01:34:00,
2012-04-16 19:39:00,43.1,18.0,30.08,West,272,0.0,5.0,36,0.00,,---,0.00,VWS V14.01,2012-04-17 01:39:00,
2012-04-16 19:44:00,42.5,18.7,30.08,West,272,0.0,1.0,38,0.00,,---,0.00,VWS V14.01,2012-04-17 01:44:00,
2012-04-16 19:49:00,41.9,18.2,30.10,West,272,1.0,5.0,38,0.00,,---,0.00,VWS V14.01,2012-04-17 01:49:00,
2012-04-16 19:54:00,41.0,18.5,30.10,West,272,0.0,2.0,40,0.00,,---,0.00,VWS V14.01,2012-04-17 01:54:00,
2012-04-16 19:59:00,40.5,18.7,30.10,West,272,2.0,2.0,41,0.00,,---,0.00,VWS V14.01,2012-04-17 01:59:00,
2012-04-16 20:04:00,40.1,18.3,30.11,West,272,0.0,2.0,41,0.00,,---,0.00,VWS V14.01,2012-04-17 02:04:00,
2012-04-16 20:09:00,39.8,18.0,30.11,West,272,0.0,0.0,41,0.00,,---,0.00,VWS V14.01,2012-04-17 02:09:00,
2012-04-16 20:14:00,39.4,18.2,30.11,West,272,1.0,1.0,42,0.00,,---,0.00,VWS V14.01,2012-04-17 02:14:00,
2012-04-16 20:19:00,38.8,17.7,30.11,West,272,0.0,1.0,42,0.00,,---,0.00,VWS V14.01,2012-04-17 02:19:00,
2012-04-16 20:24:00,38.2,17.7,30.13,West,272,0.0,2.0,43,0.00,,---,0.00,VWS V14.01,2012-04-17 02:24:00,
2012-04-16 20:29:00,38.0,17.5,30.13,West,272,0.0,1.0,43,0.00,,---,0.00,VWS V14.01,2012-04-17 02:29:00,
2012-04-16 20:34:00,37.9,17.4,30.13,West,272,0.0,0.0,43,0.00,,---,0.00,VWS V14.01,2012-04-17 02:34:00,
2012-04-16 20:39:00,37.8,16.8,30.14,West,272,0.0,1.0,42,0.00,,---,0.00,VWS V14.01,2012-04-17 02:39:00,
2012-04-16 20:44:00,37.5,17.0,30.14,West,272,0.0,1.0,43,0.00,,---,0.00,VWS V14.01,2012-04-17 02:44:00,
2012-04-16 20:49:00,37.2,16.8,30.14,West,272,0.0,0.0,43,0.00,,---,0.00,VWS V14.01,2012-04-17 02:49:00,
2012-04-16 20:50:00,37.2,16.8,30.14,West,272,0.0,0.0,43,0.00,,---,0.00,VWS V14.01,2012-04-17 02:50:00,
2012-04-16 20:55:00,37.2,16.8,30.14,West,272,0.0,0.0,43,0.00,,---,0.00,VWS V14.01,2012-04-17 02:55:00,
2012-04-16 21:00:00,37.1,16.7,30.15,West,272,0.0,1.0,43,0.00,,---,0.00,VWS V14.01,2012-04-17 03:00:00,
2012-04-16 21:05:00,37.0,16.6,30.13,West,272,0.0,0.0,43,0.00,,---,0.00,VWS V14.01,2012-04-17 03:05:00,